createdAt,value
2022-10-19T00:02:11.473Z,83.99
2022-10-19T00:04:38.207Z,83.79
2022-10-19T00:07:04.836Z,84.07
2022-10-19T00:09:31.496Z,84.22
2022-10-19T00:11:58.195Z,83.96
2022-10-19T00:14:25.198Z,84.49
2022-10-19T00:16:53.183Z,84.84
2022-10-19T00:19:24.178Z,85.16
2022-10-19T00:24:22.510Z,85.14
2022-10-19T00:26:49.382Z,85.09
2022-10-19T00:29:16.308Z,85.18
2022-10-19T00:31:43.256Z,84.58
2022-10-19T00:34:10.001Z,84.58
2022-10-19T00:36:39.451Z,84.58
2022-10-19T00:39:10.634Z,84.55
2022-10-19T00:41:38.497Z,84.71
2022-10-19T00:44:12.691Z,84.23
2022-10-19T00:46:42.039Z,84.37
2022-10-19T00:49:21.828Z,84.24
2022-10-19T00:52:04.393Z,84.16
2022-10-19T00:54:36.320Z,84.13
2022-10-19T00:57:05.215Z,84.15
2022-10-19T00:59:32.737Z,84.04
2022-10-19T01:02:02.598Z,84.01
2022-10-19T01:04:30.703Z,84.06
2022-10-19T01:06:58.299Z,84.36
2022-10-19T01:09:25.008Z,83.71
2022-10-19T01:12:25.225Z,83.87
2022-10-19T01:15:03.140Z,83.55
2022-10-19T01:17:42.000Z,82.73
2022-10-19T01:20:30.215Z,83.48
2022-10-19T01:23:17.899Z,82.72
2022-10-19T01:25:50.358Z,83.16
2022-10-19T01:28:35.809Z,82.68
2022-10-19T01:31:15.414Z,82.45
2022-10-19T01:33:53.583Z,82.67
2022-10-19T01:36:32.808Z,82.74
2022-10-19T01:39:26.594Z,81.97
2022-10-19T01:42:03.854Z,82.70
2022-10-19T01:45:11.386Z,82.62
2022-10-19T01:47:50.794Z,82.41
2022-10-19T01:50:31.505Z,82.95
2022-10-19T01:52:59.275Z,82.24
2022-10-19T01:55:27.704Z,82.81
2022-10-19T01:58:01.575Z,83.24
2022-10-19T02:00:31.797Z,82.63
2022-10-19T02:02:59.327Z,82.57
2022-10-19T02:05:31.555Z,82.35
2022-10-19T02:08:01.168Z,82.55
2022-10-19T02:10:29.864Z,81.96
2022-10-19T02:12:58.267Z,82.12
2022-10-19T02:15:28.166Z,81.97
2022-10-19T02:17:59.729Z,80.95
2022-10-19T02:20:28.133Z,81.03
2022-10-19T02:22:54.953Z,80.90
2022-10-19T02:25:22.247Z,81.26
2022-10-19T02:27:49.638Z,80.32
2022-10-19T02:30:19.318Z,80.54
2022-10-19T02:32:46.026Z,80.04
2022-10-19T02:35:14.725Z,80.49
2022-10-19T02:37:41.982Z,80.06
2022-10-19T02:40:10.108Z,80.68
2022-10-19T02:43:04.008Z,80.33
2022-10-19T02:45:42.896Z,80.18
2022-10-19T02:48:19.936Z,79.49
2022-10-19T02:50:51.968Z,80.03
2022-10-19T02:53:18.772Z,80.21
2022-10-19T02:55:49.029Z,79.33
2022-10-19T02:58:16.196Z,79.51
2022-10-19T03:00:43.076Z,79.87
2022-10-19T03:03:10.313Z,80.12
2022-10-19T03:05:37.025Z,79.89
2022-10-19T03:08:03.785Z,80.30
2022-10-19T03:10:30.398Z,80.30
2022-10-19T03:12:58.574Z,79.96
2022-10-19T03:15:28.986Z,80.37
2022-10-19T03:17:56.521Z,79.71
2022-10-19T03:20:23.340Z,79.39
2022-10-19T03:22:50.548Z,79.78
2022-10-19T03:25:17.160Z,79.89
2022-10-19T03:27:43.855Z,80.24
2022-10-19T03:30:11.058Z,80.57
2022-10-19T03:32:37.650Z,79.82
2022-10-19T03:35:04.819Z,79.66
2022-10-19T03:37:31.549Z,80.36
2022-10-19T03:39:58.296Z,80.43
2022-10-19T03:42:24.910Z,80.84
2022-10-19T03:44:51.488Z,80.89
2022-10-19T03:47:18.078Z,81.12
2022-10-19T03:49:44.757Z,81.48
2022-10-19T03:52:11.528Z,81.04
2022-10-19T03:54:38.216Z,81.56
2022-10-19T03:57:05.432Z,81.74
2022-10-19T03:59:32.270Z,80.77
2022-10-19T04:01:58.956Z,81.27
2022-10-19T04:04:25.631Z,81.14
2022-10-19T04:06:53.852Z,81.40
2022-10-19T04:09:22.032Z,81.39
2022-10-19T04:11:49.683Z,81.53
2022-10-19T04:14:27.092Z,81.29
2022-10-19T04:17:03.113Z,81.45
2022-10-19T04:19:29.907Z,80.84
2022-10-19T04:21:56.887Z,81.82
2022-10-19T04:24:23.840Z,81.16
2022-10-19T04:26:52.933Z,81.74
2022-10-19T04:29:22.781Z,82.32
2022-10-19T04:31:53.403Z,81.87
2022-10-19T04:34:20.242Z,81.75
2022-10-19T04:36:46.912Z,82.01
2022-10-19T04:39:13.891Z,81.76
2022-10-19T04:41:40.456Z,81.25
2022-10-19T04:44:07.415Z,81.53
2022-10-19T04:46:34.531Z,81.80
2022-10-19T04:49:01.488Z,81.65
2022-10-19T04:51:28.222Z,80.92
2022-10-19T04:53:59.526Z,81.18
2022-10-19T04:56:27.463Z,81.14
2022-10-19T04:58:56.512Z,81.16
2022-10-19T05:01:24.458Z,81.12
2022-10-19T05:03:59.298Z,80.92
2022-10-19T05:06:26.476Z,80.99
2022-10-19T05:08:53.304Z,80.86
2022-10-19T05:11:20.409Z,80.72
2022-10-19T05:13:47.480Z,80.42
2022-10-19T05:16:16.660Z,80.94
2022-10-19T05:18:46.767Z,80.84
2022-10-19T05:21:14.150Z,81.57
2022-10-19T05:23:41.770Z,81.59
2022-10-19T05:26:11.192Z,81.26
2022-10-19T05:28:38.231Z,81.24
2022-10-19T05:31:14.147Z,80.89
2022-10-19T05:33:41.555Z,80.85
2022-10-19T05:36:26.103Z,81.61
2022-10-19T05:38:54.660Z,80.62
2022-10-19T05:41:22.311Z,80.65
2022-10-19T05:43:54.265Z,81.20
2022-10-19T05:46:21.119Z,80.57
2022-10-19T05:48:47.993Z,79.82
2022-10-19T05:51:17.374Z,79.91
2022-10-19T05:53:44.611Z,79.79
2022-10-19T05:56:25.376Z,79.50
2022-10-19T05:58:52.572Z,79.71
2022-10-19T06:01:20.298Z,78.84
2022-10-19T06:03:47.895Z,78.67
2022-10-19T06:06:14.780Z,78.14
2022-10-19T06:08:41.492Z,78.26
2022-10-19T06:11:10.068Z,78.34
2022-10-19T06:13:37.302Z,78.21
2022-10-19T06:16:05.161Z,77.63
2022-10-19T06:18:31.767Z,77.88
2022-10-19T06:21:03.853Z,77.35
2022-10-19T06:23:31.337Z,77.39
2022-10-19T06:25:58.244Z,77.67
2022-10-19T06:28:25.111Z,77.52
2022-10-19T06:30:51.631Z,77.90
2022-10-19T06:33:18.421Z,78.40
2022-10-19T06:35:45.039Z,77.97
2022-10-19T06:38:13.799Z,77.90
2022-10-19T06:40:40.434Z,78.24
2022-10-19T06:43:07.064Z,78.88
2022-10-19T06:45:36.040Z,78.73
2022-10-19T06:48:06.626Z,79.21
2022-10-19T06:50:35.396Z,79.37
2022-10-19T06:53:02.094Z,80.09
2022-10-19T06:55:28.735Z,79.64
2022-10-19T06:57:58.536Z,78.53
2022-10-19T07:00:25.088Z,78.83
2022-10-19T07:02:51.666Z,78.63
2022-10-19T07:05:18.479Z,78.25
2022-10-19T07:07:45.627Z,77.67
2022-10-19T07:10:12.584Z,78.83
2022-10-19T07:12:39.258Z,79.00
2022-10-19T07:15:06.418Z,79.52
2022-10-19T07:17:33.248Z,79.22
2022-10-19T07:20:00.166Z,79.28
2022-10-19T07:22:28.229Z,79.47
2022-10-19T07:24:55.071Z,79.12
2022-10-19T07:27:21.791Z,78.95
2022-10-19T07:29:48.463Z,79.75
2022-10-19T07:32:15.073Z,80.08
2022-10-19T07:34:41.694Z,79.83
2022-10-19T07:37:08.331Z,79.27
2022-10-19T07:39:35.089Z,79.28
2022-10-19T07:42:01.705Z,79.28
2022-10-19T07:44:28.427Z,81.57
2022-10-19T07:46:54.985Z,81.33
2022-10-19T07:49:21.888Z,80.17
2022-10-19T07:51:48.579Z,79.10
2022-10-19T07:54:15.319Z,79.54
2022-10-19T07:56:41.977Z,79.47
2022-10-19T07:59:09.906Z,78.11
2022-10-19T08:01:41.554Z,75.48
2022-10-19T08:06:55.246Z,72.79
2022-10-19T08:12:13.797Z,73.30
2022-10-19T08:14:41.750Z,73.29
2022-10-19T08:17:11.753Z,70.19
2022-10-19T08:19:43.208Z,71.55
2022-10-19T08:22:10.447Z,68.20
2022-10-19T08:24:37.154Z,70.13
2022-10-19T08:27:03.959Z,70.14
2022-10-19T08:29:31.725Z,69.68
2022-10-19T08:31:59.612Z,69.18
2022-10-19T08:34:26.419Z,68.23
2022-10-19T08:36:54.063Z,69.75
2022-10-19T08:39:20.628Z,69.88
2022-10-19T08:41:58.456Z,69.98
2022-10-19T08:44:43.690Z,69.40
2022-10-19T08:47:13.832Z,68.85
2022-10-19T08:49:41.819Z,69.12
2022-10-19T08:52:19.652Z,67.84
2022-10-19T08:54:58.895Z,69.48
2022-10-19T08:57:33.741Z,69.46
2022-10-19T09:00:21.961Z,68.94
2022-10-19T09:02:58.039Z,68.00
2022-10-19T09:05:54.239Z,65.72
2022-10-19T09:08:21.405Z,67.19
2022-10-19T09:10:52.465Z,67.94
2022-10-19T09:13:29.251Z,67.95
2022-10-19T09:16:04.663Z,68.23
2022-10-19T09:18:37.171Z,68.79
2022-10-19T09:21:12.291Z,68.21
2022-10-19T09:23:47.207Z,66.82
2022-10-19T09:26:17.895Z,66.29
2022-10-19T09:29:06.649Z,67.15
2022-10-19T09:31:40.730Z,66.55
2022-10-19T09:34:20.788Z,67.45
2022-10-19T09:36:52.484Z,66.86
2022-10-19T09:39:20.197Z,67.31
2022-10-19T09:41:51.765Z,67.04
2022-10-19T09:44:19.091Z,67.01
2022-10-19T09:47:23.143Z,64.43
2022-10-19T09:49:50.139Z,63.29
2022-10-19T09:52:32.815Z,63.21
2022-10-19T09:55:06.103Z,63.48
2022-10-19T09:57:33.131Z,63.52
2022-10-19T10:00:00.097Z,62.68
2022-10-19T10:02:32.671Z,62.99
2022-10-19T10:05:14.100Z,64.41
2022-10-19T10:07:41.168Z,62.91
2022-10-19T10:10:30.457Z,63.57
2022-10-19T10:13:00.962Z,63.27
2022-10-19T10:15:30.863Z,63.90
2022-10-19T10:17:58.478Z,63.93
2022-10-19T10:20:35.728Z,64.10
2022-10-19T10:23:06.345Z,64.40
2022-10-19T10:25:36.231Z,64.62
2022-10-19T10:28:20.036Z,64.76
2022-10-19T10:30:48.872Z,64.74
2022-10-19T10:33:27.223Z,64.41
2022-10-19T10:36:11.331Z,61.97
2022-10-19T10:38:45.971Z,60.44
2022-10-19T10:41:17.642Z,57.15
2022-10-19T10:44:04.922Z,53.91
2022-10-19T10:46:42.668Z,51.76
2022-10-19T10:49:19.935Z,51.61
2022-10-19T10:51:53.041Z,52.83
2022-10-19T10:54:25.698Z,55.16
2022-10-19T10:57:16.536Z,57.45
2022-10-19T10:59:59.411Z,58.03
2022-10-19T11:02:50.895Z,57.39
2022-10-19T11:05:23.753Z,56.94
2022-10-19T11:08:01.057Z,56.18
2022-10-19T11:10:33.153Z,56.75
2022-10-19T11:13:24.166Z,56.76
2022-10-19T11:15:58.925Z,55.67
2022-10-19T11:18:30.172Z,54.99
2022-10-19T11:21:22.870Z,53.44
2022-10-19T11:24:05.873Z,55.61
2022-10-19T11:26:49.673Z,56.22
2022-10-19T11:29:33.633Z,57.25
2022-10-19T11:32:00.489Z,58.02
2022-10-19T11:34:43.990Z,56.82
2022-10-19T11:37:49.920Z,56.47
2022-10-19T11:41:16.959Z,56.32
2022-10-19T11:43:49.283Z,57.01
2022-10-19T11:46:42.123Z,56.22
2022-10-19T11:49:20.189Z,56.83
2022-10-19T11:51:57.549Z,56.59
2022-10-19T11:54:33.114Z,56.90
2022-10-19T11:57:11.600Z,54.96
2022-10-19T12:00:08.282Z,52.73
2022-10-19T12:03:15.671Z,52.49
2022-10-19T12:06:18.002Z,51.23
2022-10-19T12:08:49.107Z,51.29
2022-10-19T12:11:55.386Z,51.70
2022-10-19T12:14:30.141Z,51.20
2022-10-19T12:17:02.569Z,48.19
2022-10-19T12:19:36.062Z,49.25
2022-10-19T12:22:06.241Z,46.24
2022-10-19T12:24:34.420Z,44.32
2022-10-19T12:27:02.164Z,42.93
2022-10-19T12:29:36.311Z,38.91
2022-10-19T12:32:05.799Z,36.57
2022-10-19T12:34:59.186Z,38.50
2022-10-19T12:37:41.622Z,36.83
2022-10-19T12:40:27.716Z,36.48
2022-10-19T12:43:07.826Z,37.36
2022-10-19T12:45:40.383Z,36.19
2022-10-19T12:48:15.709Z,37.26
2022-10-19T12:50:48.601Z,36.99
2022-10-19T12:53:30.880Z,37.54
2022-10-19T12:56:06.731Z,40.70
2022-10-19T12:58:47.618Z,42.75
2022-10-19T13:01:23.249Z,43.87
2022-10-19T13:04:10.866Z,45.45
2022-10-19T13:06:43.707Z,46.03
2022-10-19T13:09:29.964Z,46.43
2022-10-19T13:12:21.866Z,46.41
2022-10-19T13:14:51.487Z,45.87
2022-10-19T13:17:37.060Z,45.44
2022-10-19T13:20:15.731Z,44.79
2022-10-19T13:22:48.957Z,43.03
2022-10-19T13:25:29.562Z,44.21
2022-10-19T13:28:28.185Z,44.54
2022-10-19T13:31:00.497Z,43.86
2022-10-19T13:33:32.757Z,45.04
2022-10-19T13:35:59.745Z,45.37
2022-10-19T13:38:55.890Z,42.95
2022-10-19T13:41:26.344Z,41.88
2022-10-19T13:44:18.249Z,42.95
2022-10-19T13:46:59.968Z,41.60
2022-10-19T13:49:48.069Z,42.58
2022-10-19T13:52:42.528Z,43.87
2022-10-19T13:55:22.783Z,44.73
2022-10-19T13:58:14.118Z,45.55
2022-10-19T14:01:13.142Z,45.16
2022-10-19T14:03:57.941Z,43.78
2022-10-19T14:06:32.671Z,43.95
2022-10-19T14:09:17.535Z,45.00
2022-10-19T14:11:48.439Z,46.05
2022-10-19T14:14:25.181Z,47.75
2022-10-19T14:17:04.459Z,48.49
2022-10-19T14:19:51.427Z,47.75
2022-10-19T14:22:25.998Z,46.97
2022-10-19T14:24:59.652Z,47.18
2022-10-19T14:27:26.589Z,47.73
2022-10-19T14:29:54.764Z,46.79
2022-10-19T14:32:26.144Z,48.23
2022-10-19T14:34:53.916Z,48.62
2022-10-19T14:37:23.961Z,49.46
2022-10-19T14:39:59.465Z,50.16
2022-10-19T14:42:36.913Z,50.24
2022-10-19T14:45:04.300Z,50.42
2022-10-19T14:47:31.029Z,50.06
2022-10-19T14:49:57.712Z,49.21
2022-10-19T14:52:43.074Z,49.59
2022-10-19T14:55:17.862Z,49.06
2022-10-19T14:57:49.145Z,49.29
2022-10-19T15:00:24.047Z,49.34
2022-10-19T15:03:01.412Z,50.25
2022-10-19T15:05:35.707Z,50.53
2022-10-19T15:08:15.172Z,51.05
2022-10-19T15:10:45.817Z,51.23
2022-10-19T15:13:28.959Z,51.32
2022-10-19T15:15:56.078Z,52.14
2022-10-19T15:18:47.470Z,51.51
2022-10-19T15:21:18.499Z,52.13
2022-10-19T15:23:52.565Z,52.12
2022-10-19T15:26:24.981Z,52.35
2022-10-19T15:28:54.723Z,51.82
2022-10-19T15:31:25.529Z,52.23
2022-10-19T15:34:00.759Z,52.49
2022-10-19T15:36:30.048Z,52.60
2022-10-19T15:39:18.149Z,53.18
2022-10-19T15:41:51.620Z,53.36
2022-10-19T15:44:42.165Z,53.75
2022-10-19T15:47:14.932Z,52.76
2022-10-19T15:49:41.637Z,53.29
2022-10-19T15:52:20.349Z,52.63
2022-10-19T15:54:48.110Z,52.88
2022-10-19T15:57:40.842Z,53.24
2022-10-19T16:00:17.473Z,53.31
2022-10-19T16:02:44.582Z,53.43
2022-10-19T16:05:11.568Z,53.96
2022-10-19T16:07:40.387Z,53.92
2022-10-19T16:10:08.735Z,53.71
2022-10-19T16:12:35.379Z,53.80
2022-10-19T16:15:02.005Z,53.32
2022-10-19T16:17:30.321Z,53.91
2022-10-19T16:19:56.968Z,52.85
2022-10-19T16:22:23.744Z,53.69
2022-10-19T16:24:50.456Z,53.47
2022-10-19T16:27:17.173Z,53.57
2022-10-19T16:29:44.561Z,53.38
2022-10-19T16:32:11.481Z,53.73
2022-10-19T16:34:38.188Z,53.82
2022-10-19T16:37:06.904Z,53.31
2022-10-19T16:39:35.005Z,53.79
2022-10-19T16:42:01.684Z,53.79
2022-10-19T16:44:28.353Z,54.65
2022-10-19T16:46:58.734Z,54.42
2022-10-19T16:49:26.176Z,54.57
2022-10-19T16:51:56.274Z,55.13
2022-10-19T16:54:26.478Z,54.47
2022-10-19T16:56:53.209Z,54.75
2022-10-19T16:59:20.010Z,55.27
2022-10-19T17:01:47.533Z,54.67
2022-10-19T17:04:17.419Z,55.24
2022-10-19T17:06:45.333Z,55.79
2022-10-19T17:11:59.015Z,55.27
2022-10-19T17:14:25.794Z,55.51
2022-10-19T17:16:52.810Z,56.15
2022-10-19T17:19:19.448Z,56.50
2022-10-19T17:21:46.524Z,56.44
2022-10-19T17:24:21.095Z,56.98
2022-10-19T17:26:50.838Z,56.67
2022-10-19T17:29:18.069Z,56.63
2022-10-19T17:31:47.102Z,57.20
2022-10-19T17:34:14.125Z,56.70
2022-10-19T17:36:44.760Z,56.71
2022-10-19T17:39:14.732Z,57.70
2022-10-19T17:41:41.693Z,57.83
2022-10-19T17:44:08.301Z,57.65
2022-10-19T17:46:35.364Z,58.11
2022-10-19T17:49:02.769Z,57.81
2022-10-19T17:51:31.527Z,58.18
2022-10-19T17:54:04.541Z,58.05
2022-10-19T17:56:32.210Z,57.43
2022-10-19T17:58:59.211Z,57.21
2022-10-19T18:01:26.614Z,57.49
2022-10-19T18:03:54.063Z,56.91
2022-10-19T18:06:23.937Z,56.08
2022-10-19T18:08:55.734Z,56.32
2022-10-19T18:11:27.953Z,56.95
2022-10-19T18:13:57.371Z,56.26
2022-10-19T18:16:27.405Z,56.19
2022-10-19T18:18:56.516Z,56.94
2022-10-19T18:21:26.583Z,56.54
2022-10-19T18:23:56.466Z,56.61
2022-10-19T18:26:25.222Z,56.42
2022-10-19T18:28:53.397Z,55.96
2022-10-19T18:31:22.621Z,56.56
2022-10-19T18:33:54.968Z,56.38
2022-10-19T18:36:21.728Z,57.06
2022-10-19T18:38:56.744Z,56.60
2022-10-19T18:41:24.080Z,57.18
2022-10-19T18:43:52.982Z,57.14
2022-10-19T18:46:21.256Z,57.40
2022-10-19T18:48:48.301Z,56.72
2022-10-19T18:51:15.881Z,57.56
2022-10-19T18:53:43.107Z,56.75
2022-10-19T18:56:11.895Z,56.97
2022-10-19T18:58:39.500Z,57.14
2022-10-19T19:01:18.134Z,57.10
2022-10-19T19:03:49.852Z,57.17
2022-10-19T19:06:22.494Z,56.48
2022-10-19T19:08:49.801Z,56.79
2022-10-19T19:11:19.152Z,57.23
2022-10-19T19:13:52.428Z,57.27
2022-10-19T19:16:19.499Z,57.48
2022-10-19T19:18:46.461Z,56.89
2022-10-19T19:21:36.344Z,57.56
2022-10-19T19:24:05.933Z,57.41
2022-10-19T19:26:37.701Z,57.72
2022-10-19T19:29:04.580Z,57.17
2022-10-19T19:31:31.334Z,57.08
2022-10-19T19:34:01.148Z,57.52
2022-10-19T19:36:28.235Z,57.74
2022-10-19T19:38:59.760Z,57.43
2022-10-19T19:41:29.011Z,57.88
2022-10-19T19:43:57.909Z,57.33
2022-10-19T19:46:25.867Z,57.51
2022-10-19T19:49:01.080Z,58.17
2022-10-19T19:51:28.930Z,58.46
2022-10-19T19:53:56.026Z,58.36
2022-10-19T19:56:22.695Z,57.96
2022-10-19T19:58:54.304Z,57.72
2022-10-19T20:01:22.299Z,58.07
2022-10-19T20:03:55.576Z,58.38
2022-10-19T20:06:25.793Z,58.39
2022-10-19T20:08:53.463Z,58.17
2022-10-19T20:11:20.254Z,58.72
2022-10-19T20:13:46.943Z,58.25
2022-10-19T20:16:16.663Z,59.12
2022-10-19T20:18:51.905Z,58.80
2022-10-19T20:21:23.376Z,58.35
2022-10-19T20:23:50.071Z,58.88
2022-10-19T20:26:22.003Z,58.97
2022-10-19T20:28:50.583Z,59.18
2022-10-19T20:31:18.329Z,58.88
2022-10-19T20:33:47.273Z,59.00
2022-10-19T20:36:22.994Z,58.51
2022-10-19T20:38:51.902Z,59.48
2022-10-19T20:41:20.442Z,58.71
2022-10-19T20:43:47.441Z,59.08
2022-10-19T20:46:25.919Z,58.26
2022-10-19T20:48:54.706Z,59.03
2022-10-19T20:51:30.825Z,58.81
2022-10-19T20:54:01.013Z,58.92
2022-10-19T20:56:30.000Z,58.76
2022-10-19T21:01:35.103Z,59.06
2022-10-19T21:04:04.646Z,58.87
2022-10-19T21:06:33.271Z,58.38
2022-10-19T21:09:00.357Z,59.33
2022-10-19T21:11:29.993Z,58.90
2022-10-19T21:13:59.090Z,58.83
2022-10-19T21:16:27.595Z,58.90
2022-10-19T21:18:54.246Z,58.77
2022-10-19T21:21:24.391Z,59.51
2022-10-19T21:23:54.783Z,59.51
2022-10-19T21:26:21.617Z,59.11
2022-10-19T21:28:50.670Z,59.27
2022-10-19T21:31:17.826Z,59.19
2022-10-19T21:33:45.074Z,59.00
2022-10-19T21:36:12.993Z,58.93
2022-10-19T21:38:40.098Z,59.15
2022-10-19T21:41:11.636Z,58.84
2022-10-19T21:43:38.517Z,58.36
2022-10-19T21:46:07.460Z,59.05
2022-10-19T21:48:34.556Z,59.20
2022-10-19T21:51:17.818Z,59.60
2022-10-19T21:53:44.566Z,59.75
2022-10-19T21:56:11.336Z,58.90
2022-10-19T21:58:38.137Z,59.41
2022-10-19T22:01:08.622Z,59.14
2022-10-19T22:03:35.216Z,59.65
2022-10-19T22:06:01.945Z,59.44
2022-10-19T22:08:29.051Z,59.01
2022-10-19T22:10:56.053Z,59.80
2022-10-19T22:13:22.941Z,60.10
2022-10-19T22:15:49.901Z,59.92
2022-10-19T22:18:16.997Z,60.45
2022-10-19T22:20:43.579Z,60.11
2022-10-19T22:23:10.290Z,60.00
2022-10-19T22:25:36.964Z,60.28
2022-10-19T22:28:03.705Z,59.42
2022-10-19T22:30:30.406Z,59.07
2022-10-19T22:32:57.145Z,59.94
2022-10-19T22:35:23.762Z,59.26
2022-10-19T22:37:50.489Z,59.45
2022-10-19T22:40:17.186Z,59.60
2022-10-19T22:42:43.839Z,60.33
2022-10-19T22:45:10.501Z,60.12
2022-10-19T22:47:37.203Z,60.44
2022-10-19T22:50:04.363Z,60.37
2022-10-19T22:52:31.593Z,60.18
2022-10-19T22:54:58.612Z,60.13
2022-10-19T22:57:25.267Z,60.40
2022-10-19T22:59:52.087Z,60.11
2022-10-19T23:02:19.361Z,60.18
2022-10-19T23:04:46.051Z,60.59
2022-10-19T23:07:12.819Z,60.90
2022-10-19T23:09:39.605Z,60.90
2022-10-19T23:12:06.273Z,61.52
2022-10-19T23:14:32.951Z,61.46
2022-10-19T23:16:59.657Z,61.65
2022-10-19T23:19:26.742Z,61.03
2022-10-19T23:21:53.433Z,61.48
2022-10-19T23:24:20.209Z,61.13
2022-10-19T23:26:46.945Z,61.19
2022-10-19T23:29:14.762Z,61.62
2022-10-19T23:31:41.406Z,61.14
2022-10-19T23:34:08.184Z,60.99
2022-10-19T23:36:34.950Z,60.33
2022-10-19T23:39:01.655Z,60.87
2022-10-19T23:41:28.343Z,60.89
2022-10-19T23:43:55.135Z,61.05
2022-10-19T23:46:21.771Z,60.13
2022-10-19T23:48:48.588Z,60.25
2022-10-19T23:51:17.912Z,59.63
2022-10-19T23:53:46.578Z,60.34
2022-10-19T23:56:21.765Z,60.14
2022-10-19T23:58:49.057Z,60.00
